Latest Weather Observations for Jacup

IDW60801

Issued at 11:14 pm WST Saturday 23 January 2021 (issued every 10 minutes, with the page automatically refreshed every 10 minutes)

About weather observations | Map of weather stations | Latest weather observations for WA | Other Formats
Station Details ID: 010905 Name: JACUP Lat: -33.89 Lon: 119.11 Height: 305.0 m
Data from the previous 72 hours. | See also: Recent months at Jacup
Date/Time
WST
Temp
°C
App
Temp
°C
Dew
Point
°C
Rel
Hum
%
Delta-T
°C
Wind Press
QNH
hPa
Press
MSL
hPa
Rain since
9am
mm
Dir  Spd
km/h
Gust
km/h
Spd
kts
Gust
kts
23/11:00pm 17.2 15.7 13.1 77 2.3 S 13 19 7 10 1005.0 1003.8 0.0
23/10:30pm 17.7 16.0 13.6 77 2.4 S 15 24 8 13 1005.1 1003.9 0.0
23/10:00pm 17.8 15.9 14.1 79 2.2 SSE 17 24 9 13 1005.1 1003.9 0.0
23/09:30pm 17.9 15.4 14.2 79 2.2 SSE 20 28 11 15 1005.3 1004.1 0.0
23/09:00pm 18.3 16.0 14.2 77 2.4 SSE 19 26 10 14 1005.1 1003.9 0.0
23/08:30pm 18.6 16.1 14.1 75 2.6 SSE 20 33 11 18 1004.9 1003.7 0.0
23/08:00pm 18.9 16.4 14.2 74 2.8 SSE 20 33 11 18 1004.4 1003.2 0.0
23/07:30pm 19.3 16.8 14.1 72 3.0 SSE 20 33 11 18 1003.8 1002.5 0.0
23/07:00pm 20.6 18.2 14.3 67 3.7 SE 20 32 11 17 1003.4 1002.2 0.0
23/06:30pm 22.2 19.4 14.3 61 4.7 SE 22 32 12 17 1002.9 1001.7 0.0
23/06:00pm 22.9 19.8 14.5 59 5.0 SE 24 33 13 18 1002.4 1001.2 0.0
23/05:30pm 24.1 21.5 14.8 56 5.6 SSE 22 33 12 18 1001.6 1000.4 0.0
23/05:00pm 25.6 22.8 15.3 53 6.3 SSE 24 37 13 20 1000.9 999.6 0.0
23/04:30pm 25.3 22.0 15.0 53 6.3 S 26 39 14 21 1000.6 999.3 0.0
23/04:00pm 26.4 22.9 15.4 50 6.8 S 28 44 15 24 1000.3 999.0 0.0
23/03:30pm 27.3 23.6 15.0 47 7.5 S 28 46 15 25 1000.1 998.9 0.0
23/03:00pm 28.1 23.7 15.1 45 8.0 S 32 50 17 27 1000.0 998.8 0.0
23/02:30pm 29.8 25.5 14.4 39 9.4 S 30 48 16 26 999.7 998.5 0.0
23/02:24pm 29.8 25.8 14.0 38 9.6 S 28 48 15 26 999.6 998.4 0.0
23/02:00pm 34.7 31.8 13.0 27 13.3 S 20 32 11 17 999.2 998.0 0.0
23/01:30pm 35.7 31.4 9.3 20 15.3 WSW 22 35 12 19 999.4 998.2 0.0
23/01:00pm 35.5 32.5 10.5 22 14.9 SW 17 26 9 14 999.4 998.2 0.0
23/12:30pm 35.0 32.2 11.4 24 14.1 WSW 17 28 9 15 999.7 998.5 0.0
23/12:00pm 34.1 31.8 13.0 28 12.9 WSW 17 28 9 15 999.9 998.7 0.0
23/11:30am 34.0 32.3 13.5 29 12.6 WSW 15 26 8 14 1000.0 998.8 0.0
23/11:00am 33.0 30.5 13.6 31 11.9 W 19 35 10 19 1000.3 999.0 0.0
23/10:30am 33.0 30.3 13.6 31 11.9 WNW 20 35 11 19 1000.5 999.2 0.0
23/10:00am 31.5 29.4 13.7 33 10.9 WNW 17 28 9 15 1000.8 999.5 0.0
23/09:30am 30.1 29.0 14.2 38 9.7 NW 13 20 7 11 1001.3 1000.1 0.0
23/09:00am 27.5 26.6 14.8 45 7.8 NW 13 20 7 11 1001.5 1000.3 0.0
23/08:30am 24.6 24.2 15.2 55 5.7 WNW 11 17 6 9 1001.7 1000.5 0.0
23/08:00am 22.2 21.5 15.3 65 4.2 W 13 19 7 10 1001.7 1000.5 0.0
23/07:30am 19.9 19.3 15.7 77 2.5 WNW 13 19 7 10 1002.0 1000.8 0.0
23/07:00am 17.4 17.5 16.4 94 0.6 N 11 17 6 9 1001.9 1000.7 0.0
23/06:30am 15.6 14.6 14.6 94 0.6 N 13 26 7 14 1001.9 1000.7 0.0
23/06:00am 15.6 15.8 14.6 94 0.6 S 7 11 4 6 1001.2 999.9 0.0
23/05:30am 15.3 15.3 14.3 94 0.6 S 7 11 4 6 1001.2 999.9 0.0
23/05:00am 15.4 15.7 14.4 94 0.6 SSE 6 9 3 5 1001.1 999.8 0.0
23/04:30am 15.5 15.8 14.5 94 0.6 ESE 6 9 3 5 1001.1 999.8 0.0
23/04:00am 15.6 15.3 14.5 93 0.6 ESE 9 15 5 8 1000.9 999.6 0.0
23/03:30am 15.8 16.0 14.7 93 0.6 ESE 7 11 4 6 1001.1 999.8 0.0
23/03:00am 15.8 16.5 14.5 92 0.8 ESE 4 9 2 5 1001.3 1000.1 0.0
23/02:30am 16.3 16.8 15.0 92 0.8 ESE 6 9 3 5 1001.8 1000.6 0.0
23/02:00am 16.0 15.7 14.5 91 0.9 S 9 11 5 6 1002.1 1000.9 0.0
23/01:30am 16.2 15.6 14.7 91 0.9 SE 11 15 6 8 1002.2 1001.0 0.0
23/01:00am 16.3 15.3 14.7 90 0.9 SE 13 17 7 9 1002.4 1001.2 0.0
23/12:30am 16.2 14.8 14.4 89 1.0 SE 15 20 8 11 1003.1 1001.9 0.0
23/12:00am 16.3 14.5 14.5 89 1.0 SE 17 24 9 13 1003.7 1002.4 0.0
 
Date/Time
WST
Temp
°C
App
Temp
°C
Dew
Point
°C
Rel
Hum
%
Delta-T
°C
Wind Press
QNH
hPa
Press
MSL
hPa
Rain since
9am
mm
Dir  Spd
km/h
Gust
km/h
Spd
kts
Gust
kts
22/11:30pm 16.3 15.2 14.3 88 1.2 SSE 13 17 7 9 1004.8 1003.6 0.0
22/11:00pm 16.4 15.3 14.2 87 1.3 SE 13 19 7 10 1004.7 1003.5 0.0
22/10:30pm 16.4 14.9 14.1 86 1.3 SSE 15 22 8 12 1004.7 1003.5 0.0
22/10:00pm 16.7 15.2 14.3 86 1.4 SE 15 22 8 12 1005.0 1003.8 0.0
22/09:30pm 16.8 15.0 14.4 86 1.4 SE 17 24 9 13 1004.7 1003.5 0.0
22/09:00pm 16.8 14.6 14.4 86 1.4 SE 19 24 10 13 1004.6 1003.4 0.0
22/08:30pm 16.8 14.4 14.4 86 1.4 SE 20 28 11 15 1004.4 1003.2 0.0
22/08:00pm 16.9 14.6 14.2 84 1.6 SE 19 32 10 17 1004.1 1002.8 0.0
22/07:30pm 17.7 15.2 14.2 80 2.0 SE 20 28 11 15 1004.1 1002.8 0.0
22/07:00pm 18.8 16.4 14.3 75 2.6 ESE 20 30 11 16 1003.9 1002.6 0.0
22/06:30pm 20.3 17.2 14.4 69 3.5 SE 24 33 13 18 1003.9 1002.6 0.0
22/06:00pm 22.2 19.5 14.6 62 4.6 ESE 22 32 12 17 1004.1 1002.8 0.0
22/05:30pm 24.0 21.4 15.0 57 5.4 ESE 22 30 12 16 1004.0 1002.7 0.0
22/05:00pm 25.4 23.2 14.8 52 6.5 ESE 20 28 11 15 1004.0 1002.7 0.0
22/04:30pm 25.9 23.6 14.7 50 6.8 ESE 20 26 11 14 1004.3 1003.1 0.0
22/04:00pm 26.6 24.3 14.7 48 7.3 SE 20 30 11 16 1004.6 1003.4 0.0
22/03:30pm 26.9 24.7 14.3 46 7.6 SE 19 28 10 15 1005.0 1003.8 0.0
22/03:00pm 26.8 24.4 14.5 46 7.5 SE 20 30 11 16 1005.6 1004.4 0.0
22/02:30pm 27.0 24.7 14.7 47 7.5 ESE 20 28 11 15 1006.1 1004.9 0.0
22/02:00pm 26.8 24.0 14.2 46 7.6 ESE 22 35 12 19 1006.3 1005.1 0.0
22/01:30pm 26.7 24.1 14.8 48 7.3 ESE 22 33 12 18 1006.4 1005.2 0.0
22/01:00pm 26.2 23.8 14.3 48 7.2 ESE 20 32 11 17 1006.9 1005.7 0.0
22/12:30pm 26.0 23.1 14.1 47 7.2 ESE 22 32 12 17 1006.9 1005.7 0.0
22/12:00pm 25.5 22.6 14.0 49 6.9 ESE 22 33 12 18 1007.6 1006.4 0.0
22/11:30am 24.8 21.6 14.3 52 6.3 ESE 24 32 13 17 1008.0 1006.8 0.0
22/11:00am 24.0 21.5 14.1 54 5.9 ESE 20 32 11 17 1008.5 1007.3 0.0
22/10:30am 22.9 19.7 14.2 58 5.2 ESE 24 32 13 17 1009.2 1008.0 0.0
22/10:00am 21.9 19.2 14.5 63 4.4 ESE 22 32 12 17 1009.6 1008.4 0.0
22/09:30am 21.4 18.1 14.1 63 4.3 ESE 24 32 13 17 1010.0 1008.9 0.0
22/09:00am 20.1 16.7 13.8 67 3.7 SE 24 33 13 18 1010.3 1009.2 0.0
22/08:30am 19.0 16.6 14.3 74 2.8 ESE 20 30 11 16 1010.7 1009.5 0.0
22/08:00am 17.4 15.0 14.3 82 1.8 ESE 20 28 11 15 1011.0 1009.8 0.0
22/07:30am 16.8 14.6 14.4 86 1.4 ESE 19 26 10 14 1011.5 1010.3 0.0
22/07:00am 16.3 14.1 14.3 88 1.2 ESE 19 26 10 14 1011.5 1010.3 0.0
22/06:30am 15.9 14.0 14.1 89 1.0 E 17 24 9 13 1011.5 1010.3 0.0
22/06:00am 15.7 13.3 13.9 89 1.0 ESE 19 26 10 14 1011.8 1010.6 0.0
22/05:30am 15.7 13.6 13.7 88 1.1 ESE 17 24 9 13 1011.7 1010.5 0.0
22/05:00am 15.7 14.0 13.7 88 1.1 ESE 15 22 8 12 1011.4 1010.2 0.0
22/04:30am 15.8 13.3 13.5 86 1.3 ESE 19 24 10 13 1011.2 1010.0 0.0
22/04:00am 15.8 13.3 13.5 86 1.3 E 19 26 10 14 1011.3 1010.1 0.0
22/03:30am 16.1 14.0 13.6 85 1.4 E 17 24 9 13 1011.7 1010.5 0.0
22/03:00am 16.0 13.8 13.3 84 1.5 ESE 17 24 9 13 1012.0 1010.8 0.0
22/02:30am 15.9 13.7 13.4 85 1.4 ESE 17 24 9 13 1012.2 1011.0 0.0
22/02:00am 15.9 13.2 13.6 86 1.3 ESE 20 28 11 15 1012.4 1011.2 0.0
22/01:30am 16.0 12.8 13.1 83 1.6 ESE 22 32 12 17 1012.7 1011.5 0.0
22/01:00am 15.9 13.0 13.0 83 1.6 ESE 20 28 11 15 1013.2 1012.1 0.0
22/12:30am 16.3 12.7 13.0 81 1.9 ESE 24 35 13 19 1013.2 1012.1 0.0
22/12:00am 16.3 13.6 13.4 83 1.6 ESE 20 30 11 16 1013.4 1012.3 0.0
 
Date/Time
WST
Temp
°C
App
Temp
°C
Dew
Point
°C
Rel
Hum
%
Delta-T
°C
Wind Press
QNH
hPa
Press
MSL
hPa
Rain since
9am
mm
Dir  Spd
km/h
Gust
km/h
Spd
kts
Gust
kts
21/11:30pm 16.3 13.1 13.2 82 1.8 ESE 22 32 12 17 1013.5 1012.4 0.0
21/11:00pm 16.5 13.8 13.4 82 1.8 ESE 20 28 11 15 1013.7 1012.6 0.0
21/10:30pm 16.8 14.2 13.7 82 1.8 ESE 20 28 11 15 1014.1 1012.9 0.0
21/10:00pm 16.9 13.5 13.8 82 1.8 SE 24 33 13 18 1014.3 1013.1 0.0
21/09:30pm 17.0 14.8 14.3 84 1.6 SE 19 26 10 14 1014.5 1013.3 0.0
21/09:00pm 17.0 14.6 14.5 85 1.5 SE 20 28 11 15 1014.4 1013.2 0.0
21/08:30pm 17.1 14.8 14.6 85 1.5 SE 20 28 11 15 1014.3 1013.1 0.0
21/08:00pm 17.2 14.8 14.5 84 1.6 SE 20 32 11 17 1014.2 1013.0 0.0
21/07:30pm 17.1 14.0 14.6 85 1.5 SE 24 35 13 19 1014.1 1012.9 0.0
21/07:00pm 17.7 14.5 14.2 80 2.0 SE 24 35 13 19 1013.8 1012.7 0.0
21/06:30pm 18.4 15.1 14.1 76 2.5 SE 24 35 13 19 1013.5 1012.4 0.0
21/06:00pm 18.9 15.3 14.2 74 2.7 SSE 26 35 14 19 1013.2 1012.1 0.0
21/05:30pm 20.5 16.5 14.2 67 3.7 SE 28 43 15 23 1012.8 1011.7 0.0
21/05:00pm 22.0 17.7 14.4 62 4.5 SE 30 41 16 22 1012.7 1011.5 0.0
21/04:30pm 23.5 20.3 14.2 56 5.5 SSE 24 41 13 22 1012.7 1011.5 0.0
21/04:00pm 23.7 19.3 14.1 55 5.7 SE 30 41 16 22 1012.8 1011.7 0.0
21/03:30pm 24.1 20.1 14.2 54 5.9 SE 28 37 15 20 1012.9 1011.8 0.0
21/03:00pm 24.3 20.4 14.4 54 5.9 SSE 28 43 15 23 1013.0 1011.9 0.0
21/02:30pm 24.6 21.6 14.7 54 6.0 SE 24 41 13 22 1013.1 1012.0 0.0
21/02:00pm 24.8 21.5 15.1 54 5.9 SE 26 37 14 20 1013.2 1012.1 0.0
21/01:30pm 25.3 22.4 15.0 53 6.3 SSE 24 37 13 20 1013.3 1012.2 0.0
21/01:00pm 25.0 22.0 14.8 53 6.2 SE 24 35 13 19 1013.5 1012.4 0.0
21/12:30pm 24.2 21.5 14.6 55 5.8 SSE 22 33 12 18 1013.7 1012.6 0.0
21/12:00pm 24.6 22.0 15.0 55 5.8 SE 22 35 12 19 1013.7 1012.6 0.0
21/11:30am 23.8 20.8 14.8 57 5.4 SSE 24 33 13 18 1013.9 1012.8 0.0
21/11:00am 22.7 19.8 15.0 61 4.6 SSE 24 35 13 19 1014.3 1013.1 0.0
21/10:30am 22.0 19.1 15.1 65 4.1 SE 24 32 13 17 1014.7 1013.5 0.0
21/10:00am 20.9 18.3 15.0 69 3.5 SSE 22 35 12 19 1015.0 1013.8 0.0
21/09:30am 19.2 17.1 15.1 77 2.4 SSE 20 33 11 18 1015.2 1014.0 0.0
21/09:00am 19.5 17.4 15.2 76 2.6 SE 20 32 11 17 1015.4 1014.2 0.6
21/08:30am 18.4 16.3 15.1 81 2.0 SSE 20 30 11 16 1015.5 1014.3 0.6
21/08:00am 17.7 15.8 15.3 86 1.4 SSE 19 24 10 13 1015.3 1014.1 0.6
21/07:30am 17.5 15.8 15.8 90 1.0 S 19 28 10 15 1015.2 1014.0 0.6
21/07:00am 17.1 15.3 16.1 94 0.6 S 20 32 11 17 1015.0 1013.8 0.6
21/06:30am 16.9 15.3 15.9 94 0.6 SSE 19 28 10 15 1014.8 1013.6 0.6
21/06:00am 16.8 15.6 16.0 95 0.5 SSE 17 28 9 15 1014.7 1013.5 0.6
21/05:30am 16.5 15.2 15.7 95 0.5 S 17 26 9 14 1014.5 1013.3 0.6
21/05:00am 16.5 15.2 15.7 95 0.5 S 17 26 9 14 1014.3 1013.1 0.6
21/04:30am 16.5 15.5 15.7 95 0.5 S 15 26 8 14 1014.3 1013.1 0.6
21/04:00am 16.3 14.9 15.5 95 0.5 S 17 24 9 13 1014.3 1013.1 0.6
21/03:30am 16.3 14.9 15.5 95 0.5 S 17 24 9 13 1014.3 1013.1 0.6
21/03:00am 16.5 15.9 15.7 95 0.5 S 13 20 7 11 1014.4 1013.2 0.6
21/02:30am 16.6 16.1 15.8 95 0.5 S 13 19 7 10 1014.3 1013.1 0.6
21/02:00am 16.4 15.0 15.6 95 0.5 SSW 17 24 9 13 1014.1 1012.9 0.6
21/01:30am 15.6 15.0 14.6 94 0.6 SSE 11 17 6 9 1014.2 1013.0 0.6
21/01:00am 15.6 15.3 14.5 93 0.6 SSE 9 13 5 7 1014.4 1013.2 0.6
21/12:30am 15.6 17.0 14.3 92 0.7 CALM 0 0 0 0 1014.5 1013.3 0.6
21/12:00am 15.9 16.2 14.6 92 0.8 SSE 6 9 3 5 1014.3 1013.1 0.6
 
Date/Time
WST
Temp
°C
App
Temp
°C
Dew
Point
°C
Rel
Hum
%
Delta-T
°C
Wind Press
QNH
hPa
Press
MSL
hPa
Rain since
9am
mm
Dir  Spd
km/h
Gust
km/h
Spd
kts
Gust
kts
20/11:30pm 16.1 17.6 14.6 91 0.9 CALM 0 0 0 0 1014.4 1013.2 0.6

Other formats

Comma delimited format used in spreadsheet applications
http://www.bom.gov.au/fwo/IDW60801/IDW60801.95636.axf

JavaScript Object Notation format (JSON) in row-major order
http://www.bom.gov.au/fwo/IDW60801/IDW60801.95636.json

Data quality

Most of these data are generated automatically and are frequently updated. Quality checks on data are not normally performed. It is possible for incorrect values to appear. Refer to information at About Latest Weather Observations and please check the disclaimer before using these data.